createdAt,value
2017-11-30T00:02:20.481Z,22.15
2017-11-30T00:04:48.806Z,18.77
2017-11-30T00:07:36.670Z,20.83
2017-11-30T00:10:04.238Z,19.30
2017-11-30T00:12:31.925Z,18.23
2017-11-30T00:14:59.508Z,19.07
2017-11-30T00:17:27.065Z,19.65
2017-11-30T00:19:54.629Z,23.40
2017-11-30T00:22:22.207Z,22.17
2017-11-30T00:24:49.792Z,17.30
2017-11-30T00:27:17.440Z,17.70
2017-11-30T00:29:44.984Z,16.83
2017-11-30T00:32:12.533Z,14.80
2017-11-30T00:34:40.088Z,15.27
2017-11-30T00:37:07.629Z,18.53
2017-11-30T00:39:35.941Z,16.20
2017-11-30T00:42:03.569Z,13.40
2017-11-30T00:44:32.988Z,15.03
2017-11-30T00:47:00.577Z,16.50
2017-11-30T00:49:28.154Z,14.63
2017-11-30T00:51:55.698Z,14.00
2017-11-30T00:54:23.247Z,16.50
2017-11-30T00:56:50.796Z,16.30
2017-11-30T00:59:18.369Z,15.33
2017-11-30T01:01:45.954Z,17.53
2017-11-30T01:04:13.511Z,16.20
2017-11-30T01:06:41.069Z,16.57
2017-11-30T01:09:08.623Z,19.63
2017-11-30T01:11:36.984Z,18.23
2017-11-30T01:14:04.529Z,17.27
2017-11-30T01:16:32.116Z,17.40
2017-11-30T01:18:59.669Z,18.37
2017-11-30T01:21:28.194Z,16.80
2017-11-30T01:23:55.742Z,15.90
2017-11-30T01:26:23.292Z,17.60
2017-11-30T01:28:50.858Z,17.60
2017-11-30T01:31:18.412Z,19.90
2017-11-30T01:33:45.987Z,21.00
2017-11-30T01:36:14.331Z,19.23
2017-11-30T01:38:41.900Z,20.60
2017-11-30T01:41:09.446Z,21.63
2017-11-30T01:43:37.002Z,18.57
2017-11-30T01:46:04.550Z,16.23
2017-11-30T01:48:32.098Z,19.03
2017-11-30T01:50:59.695Z,17.07
2017-11-30T01:53:27.284Z,20.77
2017-11-30T01:55:54.843Z,18.47
2017-11-30T01:58:22.395Z,15.80
2017-11-30T02:00:50.017Z,17.57
2017-11-30T02:03:17.577Z,18.10
2017-11-30T02:05:45.144Z,17.37
2017-11-30T02:08:12.733Z,16.47
2017-11-30T02:10:40.287Z,16.60
2017-11-30T02:13:26.266Z,16.57
2017-11-30T02:15:54.453Z,17.47
2017-11-30T02:18:21.997Z,15.27
2017-11-30T02:20:49.568Z,15.80
2017-11-30T02:23:17.146Z,18.00
2017-11-30T02:25:44.732Z,20.03
2017-11-30T02:28:12.349Z,19.80
2017-11-30T02:30:39.986Z,17.83
2017-11-30T02:33:07.549Z,18.07
2017-11-30T02:35:35.114Z,19.73
2017-11-30T02:38:02.689Z,17.07
2017-11-30T02:40:30.266Z,15.87
2017-11-30T02:42:57.863Z,18.13
2017-11-30T02:45:26.204Z,16.40
2017-11-30T02:47:53.757Z,15.90
2017-11-30T02:50:22.126Z,15.03
2017-11-30T02:52:49.791Z,17.27
2017-11-30T02:55:17.453Z,16.97
2017-11-30T02:57:45.000Z,15.90
2017-11-30T03:00:12.567Z,17.83
2017-11-30T03:02:40.180Z,16.20
2017-11-30T03:05:07.736Z,13.60
2017-11-30T03:07:35.324Z,21.33
2017-11-30T03:10:03.679Z,18.20
2017-11-30T03:12:32.013Z,16.20
2017-11-30T03:14:59.583Z,16.50
2017-11-30T03:17:27.158Z,14.60
2017-11-30T03:19:54.708Z,17.43
2017-11-30T03:22:22.308Z,14.60
2017-11-30T03:24:50.681Z,14.10
2017-11-30T03:27:19.011Z,17.73
2017-11-30T03:29:46.576Z,18.08
2017-11-30T03:32:14.140Z,17.30
2017-11-30T03:34:41.702Z,14.80
2017-11-30T03:37:09.317Z,16.00
2017-11-30T03:39:37.695Z,16.30
2017-11-30T03:42:06.033Z,17.50
2017-11-30T03:44:33.588Z,14.83
2017-11-30T03:47:01.192Z,17.20
2017-11-30T03:49:29.550Z,17.03
2017-11-30T03:51:57.097Z,14.17
2017-11-30T03:54:24.668Z,16.70
2017-11-30T03:56:52.221Z,15.00
2017-11-30T03:59:19.772Z,16.50
2017-11-30T04:01:47.330Z,14.07
2017-11-30T04:04:14.893Z,14.57
2017-11-30T04:06:42.464Z,15.93
2017-11-30T04:09:10.016Z,17.23
2017-11-30T04:11:37.570Z,14.00
2017-11-30T04:14:05.124Z,17.23
2017-11-30T04:16:32.752Z,16.00
2017-11-30T04:19:00.299Z,16.57
2017-11-30T04:21:28.606Z,15.90
2017-11-30T04:23:56.157Z,16.33
2017-11-30T04:26:23.697Z,18.63
2017-11-30T04:28:52.084Z,18.80
2017-11-30T04:31:19.648Z,17.10
2017-11-30T04:33:47.199Z,13.23
2017-11-30T04:36:14.743Z,19.47
2017-11-30T04:38:42.328Z,15.30
2017-11-30T04:41:09.876Z,12.10
2017-11-30T04:43:37.436Z,10.93
2017-11-30T04:46:05.792Z,13.40
2017-11-30T04:48:33.333Z,13.77
2017-11-30T04:51:00.869Z,11.40
2017-11-30T04:53:28.410Z,13.03
2017-11-30T04:55:55.976Z,11.65
2017-11-30T04:58:23.554Z,9.97
2017-11-30T05:00:51.136Z,12.27
2017-11-30T05:03:18.732Z,15.30
2017-11-30T05:05:47.068Z,12.27
2017-11-30T05:08:14.610Z,13.00
2017-11-30T05:10:42.177Z,12.00
2017-11-30T05:13:09.741Z,12.50
2017-11-30T05:15:37.291Z,12.97
2017-11-30T05:18:04.865Z,12.13
2017-11-30T05:20:32.410Z,16.00
2017-11-30T05:22:59.989Z,15.53
2017-11-30T05:25:27.554Z,17.27
2017-11-30T05:27:55.124Z,17.40
2017-11-30T05:30:22.679Z,16.63
2017-11-30T05:32:50.246Z,21.25
2017-11-30T05:35:21.588Z,21.70
2017-11-30T05:37:49.127Z,17.53
2017-11-30T05:40:16.687Z,20.10
2017-11-30T05:42:44.245Z,18.55
2017-11-30T05:45:11.810Z,17.93
2017-11-30T05:47:39.387Z,19.17
2017-11-30T05:50:06.961Z,16.33
2017-11-30T05:52:34.524Z,21.10
2017-11-30T05:55:02.862Z,18.20
2017-11-30T05:57:30.426Z,14.10
2017-11-30T05:59:58.036Z,17.70
2017-11-30T06:02:26.364Z,14.93
2017-11-30T06:04:53.909Z,15.33
2017-11-30T06:07:21.480Z,15.85
2017-11-30T06:09:49.023Z,16.70
2017-11-30T06:12:17.373Z,15.15
2017-11-30T06:14:45.701Z,14.87
2017-11-30T06:17:14.063Z,14.35
2017-11-30T06:19:41.618Z,14.93
2017-11-30T06:22:09.169Z,14.50
2017-11-30T06:24:36.718Z,12.47
2017-11-30T06:27:05.060Z,14.47
2017-11-30T06:29:32.623Z,14.93
2017-11-30T06:32:00.168Z,13.20
2017-11-30T06:34:27.714Z,11.52
2017-11-30T06:36:55.268Z,11.77
2017-11-30T06:39:22.890Z,11.32
2017-11-30T06:41:51.221Z,12.30
2017-11-30T06:44:18.780Z,10.40
2017-11-30T06:46:46.321Z,12.23
2017-11-30T06:49:13.932Z,8.90
2017-11-30T06:51:41.542Z,11.20
2017-11-30T06:54:09.119Z,7.97
2017-11-30T06:56:36.681Z,9.13
2017-11-30T06:59:04.257Z,8.95
2017-11-30T07:01:31.797Z,8.90
2017-11-30T07:03:59.361Z,9.50
2017-11-30T07:06:26.898Z,7.80
2017-11-30T07:08:54.517Z,9.82
2017-11-30T07:11:22.857Z,9.25
2017-11-30T07:13:50.399Z,6.45
2017-11-30T07:16:17.965Z,8.70
2017-11-30T07:18:45.526Z,9.30
2017-11-30T07:21:13.113Z,10.30
2017-11-30T07:23:40.662Z,9.30
2017-11-30T07:26:08.215Z,8.77
2017-11-30T07:28:35.776Z,10.03
2017-11-30T07:31:03.323Z,9.73
2017-11-30T07:33:30.899Z,9.73
2017-11-30T07:35:58.492Z,10.45
2017-11-30T07:38:26.039Z,11.97
2017-11-30T07:40:53.577Z,9.80
2017-11-30T07:43:21.138Z,10.48
2017-11-30T07:45:48.707Z,9.40
2017-11-30T07:48:16.254Z,11.53
2017-11-30T07:50:43.803Z,8.63
2017-11-30T07:53:11.373Z,8.53
2017-11-30T07:55:38.929Z,9.73
2017-11-30T07:58:06.495Z,8.50
2017-11-30T08:00:34.041Z,10.77
2017-11-30T08:03:01.605Z,9.57
2017-11-30T08:05:29.148Z,12.47
2017-11-30T08:07:56.698Z,11.30
2017-11-30T08:10:24.285Z,10.77
2017-11-30T08:12:51.840Z,10.80
2017-11-30T08:15:19.424Z,10.60
2017-11-30T08:17:46.980Z,15.53
2017-11-30T08:20:14.529Z,8.30
2017-11-30T08:22:42.133Z,8.87
2017-11-30T08:25:09.695Z,9.10
2017-11-30T08:27:37.244Z,9.87
2017-11-30T08:30:04.821Z,8.80
2017-11-30T08:32:32.370Z,9.90
2017-11-30T08:34:59.935Z,14.70
2017-11-30T08:37:27.494Z,10.07
2017-11-30T08:39:55.063Z,9.80
2017-11-30T08:42:22.620Z,10.47
2017-11-30T08:44:50.164Z,8.27
2017-11-30T08:47:17.722Z,8.17
2017-11-30T08:49:45.288Z,9.77
2017-11-30T08:52:12.860Z,13.27
2017-11-30T08:54:40.404Z,8.20
2017-11-30T08:57:07.963Z,8.50
2017-11-30T08:59:35.547Z,7.90
2017-11-30T09:02:03.115Z,7.10
2017-11-30T09:04:31.456Z,6.23
2017-11-30T09:06:59.777Z,8.93
2017-11-30T09:09:28.102Z,7.23
2017-11-30T09:11:55.640Z,6.73
2017-11-30T09:14:23.184Z,6.93
2017-11-30T09:16:51.496Z,5.93
2017-11-30T09:19:19.048Z,6.40
2017-11-30T09:21:46.640Z,6.20
2017-11-30T09:24:14.941Z,6.67
2017-11-30T09:26:43.259Z,6.63
2017-11-30T09:29:10.829Z,4.47
2017-11-30T09:31:38.379Z,6.60
2017-11-30T09:34:06.005Z,6.40
2017-11-30T09:36:35.350Z,7.23
2017-11-30T09:39:02.929Z,7.13
2017-11-30T09:41:30.479Z,7.07
2017-11-30T09:43:58.038Z,6.73
2017-11-30T09:46:25.641Z,5.37
2017-11-30T09:48:53.977Z,5.73
2017-11-30T09:51:21.539Z,6.07
2017-11-30T09:53:49.071Z,5.93
2017-11-30T09:56:16.618Z,6.93
2017-11-30T09:58:44.193Z,6.27
2017-11-30T10:01:11.738Z,5.83
2017-11-30T10:03:40.054Z,8.00
2017-11-30T10:06:07.601Z,6.37
2017-11-30T10:08:35.145Z,6.93
2017-11-30T10:11:02.685Z,8.23
2017-11-30T10:13:31.001Z,9.50
2017-11-30T10:15:58.578Z,7.90
2017-11-30T10:18:26.122Z,6.93
2017-11-30T10:20:53.681Z,10.10
2017-11-30T10:23:21.224Z,6.00
2017-11-30T10:25:48.763Z,6.47
2017-11-30T10:28:16.604Z,5.90
2017-11-30T10:30:44.277Z,6.93
2017-11-30T10:33:11.827Z,12.47
2017-11-30T10:35:39.381Z,6.43
2017-11-30T10:38:09.510Z,8.40
2017-11-30T10:40:38.554Z,4.90
2017-11-30T10:43:06.221Z,4.57
2017-11-30T10:45:33.791Z,5.40
2017-11-30T10:48:01.337Z,3.93
2017-11-30T10:50:28.884Z,4.67
2017-11-30T10:52:57.190Z,5.23
2017-11-30T10:55:25.696Z,8.90
2017-11-30T10:57:53.275Z,5.90
2017-11-30T11:00:20.817Z,5.37
2017-11-30T11:02:48.359Z,4.10
2017-11-30T11:05:15.925Z,5.07
2017-11-30T11:07:43.481Z,6.23
2017-11-30T11:10:11.062Z,6.80
2017-11-30T11:12:38.612Z,8.63
2017-11-30T11:15:06.153Z,10.10
2017-11-30T11:17:33.702Z,10.77
2017-11-30T11:20:01.244Z,7.10
2017-11-30T11:22:29.571Z,10.23
2017-11-30T11:24:57.117Z,8.17
2017-11-30T11:27:24.654Z,7.83
2017-11-30T11:29:52.188Z,7.77
2017-11-30T11:32:20.488Z,7.67
2017-11-30T11:34:48.036Z,7.67
2017-11-30T11:37:16.352Z,7.87
2017-11-30T11:39:43.928Z,9.77
2017-11-30T11:42:12.242Z,8.10
2017-11-30T11:44:40.567Z,11.60
2017-11-30T11:47:08.115Z,8.30
2017-11-30T11:49:35.660Z,11.90
2017-11-30T11:52:03.237Z,8.70
2017-11-30T11:54:30.775Z,8.90
2017-11-30T11:56:58.329Z,10.47
2017-11-30T11:59:26.647Z,7.67
2017-11-30T12:01:54.204Z,9.07
2017-11-30T12:04:21.780Z,9.00
2017-11-30T12:06:49.357Z,9.50
2017-11-30T12:09:16.901Z,9.10
2017-11-30T12:11:44.447Z,12.20
2017-11-30T12:14:11.992Z,9.03
2017-11-30T12:16:39.601Z,9.90
2017-11-30T12:22:03.681Z,12.90
2017-11-30T12:24:31.242Z,9.67
2017-11-30T12:26:58.785Z,9.80
2017-11-30T12:29:26.321Z,9.70
2017-11-30T12:31:53.864Z,10.17
2017-11-30T12:34:22.213Z,10.93
2017-11-30T12:36:49.764Z,10.67
2017-11-30T12:39:17.317Z,9.30
2017-11-30T12:41:45.633Z,10.77
2017-11-30T12:44:13.950Z,9.77
2017-11-30T12:46:41.534Z,8.53
2017-11-30T12:49:09.064Z,8.97
2017-11-30T12:51:36.612Z,9.90
2017-11-30T12:54:04.151Z,8.23
2017-11-30T12:56:32.480Z,9.73
2017-11-30T12:59:00.037Z,11.67
2017-11-30T13:01:27.599Z,12.30
2017-11-30T13:03:55.162Z,13.47
2017-11-30T13:06:22.701Z,12.57
2017-11-30T13:08:50.238Z,14.90
2017-11-30T13:11:18.558Z,8.83
2017-11-30T13:13:46.134Z,10.87
2017-11-30T13:16:13.707Z,8.00
2017-11-30T13:18:41.272Z,6.60
2017-11-30T13:21:08.828Z,9.03
2017-11-30T13:23:36.388Z,8.33
2017-11-30T13:26:03.953Z,10.83
2017-11-30T13:28:31.534Z,9.07
2017-11-30T13:30:59.834Z,10.50
2017-11-30T13:33:27.386Z,11.13
2017-11-30T13:35:54.939Z,8.50
2017-11-30T13:38:23.252Z,10.17
2017-11-30T13:40:50.795Z,7.50
2017-11-30T13:43:18.335Z,8.37
2017-11-30T13:45:46.667Z,6.70
2017-11-30T13:48:14.209Z,11.83
2017-11-30T13:50:41.758Z,7.60
2017-11-30T13:53:09.312Z,6.30
2017-11-30T13:55:36.852Z,6.93
2017-11-30T13:58:17.087Z,8.17
2017-11-30T14:00:44.633Z,5.93
2017-11-30T14:03:12.179Z,5.90
2017-11-30T14:05:39.711Z,6.93
2017-11-30T14:08:07.247Z,8.77
2017-11-30T14:10:37.323Z,7.57
2017-11-30T14:13:04.861Z,6.93
2017-11-30T14:15:32.403Z,8.13
2017-11-30T14:17:59.948Z,6.87
2017-11-30T14:20:28.259Z,8.30
2017-11-30T14:22:55.787Z,8.37
2017-11-30T14:25:24.082Z,8.50
2017-11-30T14:27:51.652Z,9.33
2017-11-30T14:30:19.198Z,9.03
2017-11-30T14:32:46.738Z,8.13
2017-11-30T14:35:15.045Z,9.80
2017-11-30T14:37:42.579Z,12.20
2017-11-30T14:40:10.907Z,9.90
2017-11-30T14:42:38.467Z,8.70
2017-11-30T14:45:06.016Z,8.73
2017-11-30T14:47:33.558Z,10.90
2017-11-30T14:50:01.568Z,7.63
2017-11-30T14:52:29.103Z,9.43
2017-11-30T14:54:56.676Z,11.07
2017-11-30T14:57:24.235Z,8.23
2017-11-30T14:59:52.559Z,11.87
2017-11-30T15:02:20.872Z,9.10
2017-11-30T15:04:48.406Z,7.17
2017-11-30T15:07:16.702Z,7.93
2017-11-30T15:09:44.242Z,9.40
2017-11-30T15:12:17.230Z,11.87
2017-11-30T15:14:45.566Z,10.03
2017-11-30T15:17:13.151Z,12.37
2017-11-30T15:19:41.458Z,10.27
2017-11-30T15:22:09.054Z,9.03
2017-11-30T15:24:36.607Z,8.53
2017-11-30T15:27:04.142Z,8.90
2017-11-30T15:29:31.687Z,8.47
2017-11-30T15:32:00.010Z,9.13
2017-11-30T15:34:29.195Z,6.97
2017-11-30T15:36:58.655Z,7.77
2017-11-30T15:39:26.194Z,6.90
2017-11-30T15:41:54.523Z,6.67
2017-11-30T15:44:22.107Z,7.07
2017-11-30T15:46:49.649Z,6.13
2017-11-30T15:49:17.192Z,7.20
2017-11-30T15:51:44.998Z,7.77
2017-11-30T15:54:12.532Z,11.43
2017-11-30T15:56:40.083Z,7.80
2017-11-30T15:59:07.633Z,7.37
2017-11-30T16:01:35.939Z,7.13
2017-11-30T16:04:03.484Z,6.13
2017-11-30T16:06:31.023Z,6.87
2017-11-30T16:08:58.626Z,7.00
2017-11-30T16:11:26.169Z,7.67
2017-11-30T16:13:53.712Z,6.73
2017-11-30T16:16:21.254Z,9.40
2017-11-30T16:18:49.577Z,7.23
2017-11-30T16:21:23.092Z,7.90
2017-11-30T16:23:50.661Z,8.87
2017-11-30T16:26:18.259Z,9.73
2017-11-30T16:28:46.619Z,12.20
2017-11-30T16:31:14.159Z,9.43
2017-11-30T16:33:41.712Z,10.17
2017-11-30T16:36:09.248Z,8.30
2017-11-30T16:38:38.787Z,8.70
2017-11-30T16:41:06.327Z,9.90
2017-11-30T16:43:33.889Z,8.87
2017-11-30T16:46:01.452Z,10.57
2017-11-30T16:48:28.984Z,8.83
2017-11-30T16:50:56.590Z,8.70
2017-11-30T16:53:24.155Z,9.23
2017-11-30T16:55:51.747Z,10.30
2017-11-30T16:58:19.291Z,8.10
2017-11-30T17:00:46.830Z,10.13
2017-11-30T17:03:14.373Z,11.87
2017-11-30T17:05:41.910Z,11.20
2017-11-30T17:08:09.480Z,10.20
2017-11-30T17:10:37.037Z,11.73
2017-11-30T17:13:04.593Z,16.53
2017-11-30T17:15:32.153Z,12.50
2017-11-30T17:17:59.694Z,11.37
2017-11-30T17:20:34.962Z,11.13
2017-11-30T17:23:02.544Z,11.23
2017-11-30T17:25:30.098Z,11.30
2017-11-30T17:27:57.654Z,10.37
2017-11-30T17:30:25.234Z,10.47
2017-11-30T17:32:52.785Z,8.93
2017-11-30T17:35:20.361Z,10.70
2017-11-30T17:37:47.991Z,10.87
2017-11-30T17:40:15.591Z,9.43
2017-11-30T17:42:43.162Z,11.43
2017-11-30T17:45:10.715Z,10.23
2017-11-30T17:47:38.263Z,9.80
2017-11-30T17:50:05.832Z,10.60
2017-11-30T17:52:33.379Z,12.33
2017-11-30T17:55:00.972Z,10.00
2017-11-30T17:57:29.290Z,13.20
2017-11-30T17:59:56.835Z,15.47
2017-11-30T18:02:28.690Z,13.27
2017-11-30T18:04:56.232Z,12.80
2017-11-30T18:07:23.805Z,13.03
2017-11-30T18:09:51.355Z,14.20
2017-11-30T18:12:19.851Z,12.40
2017-11-30T18:14:47.490Z,12.17
2017-11-30T18:17:15.829Z,13.00
2017-11-30T18:19:43.387Z,13.87
2017-11-30T18:22:10.929Z,14.57
2017-11-30T18:24:38.826Z,11.60
2017-11-30T18:27:07.630Z,15.00
2017-11-30T18:29:36.164Z,10.00
2017-11-30T18:32:04.747Z,11.13
2017-11-30T18:34:32.526Z,10.15
2017-11-30T18:37:00.086Z,11.30
2017-11-30T18:39:27.775Z,8.27
2017-11-30T18:41:57.340Z,9.33
2017-11-30T18:44:24.882Z,11.53
2017-11-30T18:46:53.194Z,8.70
2017-11-30T18:49:20.771Z,8.33
2017-11-30T18:51:58.631Z,9.43
2017-11-30T18:54:26.214Z,9.97
2017-11-30T18:56:53.769Z,8.27
2017-11-30T18:59:21.316Z,12.03
2017-11-30T19:01:48.894Z,9.10
2017-11-30T19:04:16.439Z,9.10
2017-11-30T19:06:43.997Z,10.23
2017-11-30T19:09:11.541Z,9.43
2017-11-30T19:11:39.870Z,9.33
2017-11-30T19:14:07.417Z,10.17
2017-11-30T19:16:34.960Z,11.83
2017-11-30T19:19:02.507Z,10.00
2017-11-30T19:21:30.798Z,9.13
2017-11-30T19:23:58.361Z,9.53
2017-11-30T19:26:25.906Z,8.40
2017-11-30T19:28:53.487Z,10.50
2017-11-30T19:31:21.032Z,10.23
2017-11-30T19:33:48.567Z,11.40
2017-11-30T19:36:16.871Z,12.73
2017-11-30T19:38:44.425Z,14.20
2017-11-30T19:41:12.033Z,13.83
2017-11-30T19:43:39.602Z,16.40
2017-11-30T19:46:07.160Z,32.10
2017-11-30T19:48:34.715Z,31.80
2017-11-30T19:51:02.288Z,24.20
2017-11-30T19:53:29.854Z,19.57
2017-11-30T19:55:58.200Z,18.67
2017-11-30T19:58:25.806Z,17.73
2017-11-30T20:00:54.147Z,19.10
2017-11-30T20:03:21.704Z,15.90
2017-11-30T20:05:49.253Z,21.00
2017-11-30T20:08:16.799Z,22.67
2017-11-30T20:10:44.403Z,17.37
2017-11-30T20:13:11.954Z,20.33
2017-11-30T20:15:39.523Z,16.53
2017-11-30T20:18:07.076Z,14.10
2017-11-30T20:20:34.711Z,15.83
2017-11-30T20:23:02.308Z,13.40
2017-11-30T20:25:29.866Z,13.47
2017-11-30T20:27:57.415Z,11.87
2017-11-30T20:30:24.984Z,11.70
2017-11-30T20:32:52.564Z,10.37
2017-11-30T20:35:20.132Z,11.27
2017-11-30T20:37:48.458Z,11.83
2017-11-30T20:40:16.003Z,12.27
2017-11-30T20:42:43.569Z,12.50
2017-11-30T20:45:11.124Z,11.60
2017-11-30T20:47:39.255Z,11.73
2017-11-30T20:50:06.811Z,13.70
2017-11-30T20:52:34.377Z,11.87
2017-11-30T20:55:02.701Z,12.90
2017-11-30T20:57:30.626Z,11.90
2017-11-30T20:59:58.176Z,11.37
2017-11-30T21:02:25.741Z,13.47
2017-11-30T21:04:53.340Z,12.17
2017-11-30T21:07:20.892Z,13.23
2017-11-30T21:09:48.460Z,12.80
2017-11-30T21:15:09.127Z,12.40
2017-11-30T21:17:37.657Z,12.97
2017-11-30T21:20:17.241Z,17.25
2017-11-30T21:22:53.179Z,12.77
2017-11-30T21:25:20.734Z,14.27
2017-11-30T21:27:48.324Z,12.93
2017-11-30T21:30:15.871Z,15.27
2017-11-30T21:32:43.419Z,13.03
2017-11-30T21:35:11.003Z,12.65
2017-11-30T21:37:38.555Z,15.83
2017-11-30T21:40:23.266Z,14.20
2017-11-30T21:42:51.576Z,12.63
2017-11-30T21:45:19.122Z,10.65
2017-11-30T21:47:46.680Z,13.73
2017-11-30T21:50:14.229Z,13.43
2017-11-30T21:52:41.790Z,13.82
2017-11-30T21:55:09.342Z,15.07
2017-11-30T21:57:37.659Z,14.07
2017-11-30T22:00:05.270Z,15.18
2017-11-30T22:02:33.591Z,11.40
2017-11-30T22:05:01.146Z,18.95
2017-11-30T22:07:28.694Z,11.23
2017-11-30T22:09:56.243Z,12.60
2017-11-30T22:12:23.795Z,11.00
2017-11-30T22:14:51.403Z,21.95
2017-11-30T22:17:18.959Z,9.65
2017-11-30T22:19:46.549Z,10.70
2017-11-30T22:22:14.113Z,12.70
2017-11-30T22:24:41.705Z,16.40
2017-11-30T22:27:10.084Z,14.55
2017-11-30T22:29:37.670Z,15.55
2017-11-30T22:32:05.219Z,13.80
2017-11-30T22:34:32.773Z,14.90
2017-11-30T22:37:00.369Z,11.55
2017-11-30T22:39:27.926Z,13.02
2017-11-30T22:41:55.514Z,12.65
2017-11-30T22:44:23.073Z,12.43
2017-11-30T22:46:50.634Z,12.00
2017-11-30T22:49:18.274Z,13.98
2017-11-30T22:51:45.839Z,13.70
2017-11-30T22:54:13.415Z,13.00
2017-11-30T22:56:41.007Z,12.63
2017-11-30T22:59:09.324Z,10.60
2017-11-30T23:01:36.911Z,13.13
2017-11-30T23:04:04.472Z,12.60
2017-11-30T23:06:32.019Z,10.45
2017-11-30T23:08:59.599Z,14.17
2017-11-30T23:11:27.161Z,13.80
2017-11-30T23:13:54.744Z,12.15
2017-11-30T23:16:23.069Z,12.93
2017-11-30T23:18:50.649Z,13.10
2017-11-30T23:21:18.205Z,13.82
2017-11-30T23:23:45.760Z,9.70
2017-11-30T23:26:13.318Z,11.10
2017-11-30T23:28:41.132Z,10.63
2017-11-30T23:31:09.508Z,12.70
2017-11-30T23:33:37.831Z,13.23
2017-11-30T23:36:05.376Z,11.57
2017-11-30T23:38:32.947Z,11.18
2017-11-30T23:41:00.495Z,11.77
2017-11-30T23:43:28.075Z,10.60
2017-11-30T23:45:55.628Z,11.47
2017-11-30T23:48:23.203Z,13.38
2017-11-30T23:50:50.750Z,12.10
2017-11-30T23:53:18.294Z,14.10
2017-11-30T23:55:45.858Z,14.27
2017-11-30T23:58:13.406Z,14.63
